sensor_id;sensor_type;location;lat;lon;timestamp;temperature;humidity
42885;DHT22;28534;48.100;11.584;2022-10-01T04:04:40;21.30;69.40
42885;DHT22;28534;48.100;11.584;2022-10-01T04:14:41;21.50;69.00
42885;DHT22;28534;48.100;11.584;2022-10-01T04:24:44;21.50;69.10
42885;DHT22;28534;48.100;11.584;2022-10-01T04:34:46;21.50;68.80
42885;DHT22;28534;48.100;11.584;2022-10-01T04:44:55;21.60;68.50
42885;DHT22;28534;48.100;11.584;2022-10-01T04:54:57;21.70;68.30
42885;DHT22;28534;48.100;11.584;2022-10-01T05:05:00;21.80;68.20
42885;DHT22;28534;48.100;11.584;2022-10-01T05:15:03;21.70;69.50
42885;DHT22;28534;48.100;11.584;2022-10-01T05:25:07;21.80;69.20
42885;DHT22;28534;48.100;11.584;2022-10-01T05:35:09;21.80;70.80
42885;DHT22;28534;48.100;11.584;2022-10-01T05:45:12;22.00;71.30
42885;DHT22;28534;48.100;11.584;2022-10-01T05:55:14;22.00;70.90
42885;DHT22;28534;48.100;11.584;2022-10-01T06:05:17;21.90;70.20
42885;DHT22;28534;48.100;11.584;2022-10-01T06:15:19;22.00;69.50
42885;DHT22;28534;48.100;11.584;2022-10-01T06:25:24;22.10;69.90
42885;DHT22;28534;48.100;11.584;2022-10-01T06:35:27;22.00;69.80
42885;DHT22;28534;48.100;11.584;2022-10-01T06:45:30;21.90;70.40
42885;DHT22;28534;48.100;11.584;2022-10-01T06:55:34;21.90;70.80
42885;DHT22;28534;48.100;11.584;2022-10-01T07:05:37;21.70;71.30
42885;DHT22;28534;48.100;11.584;2022-10-01T07:15:39;21.70;71.70
42885;DHT22;28534;48.100;11.584;2022-10-01T07:25:43;21.80;71.40
42885;DHT22;28534;48.100;11.584;2022-10-01T07:35:45;21.80;70.20
42885;DHT22;28534;48.100;11.584;2022-10-01T07:45:48;21.70;70.20
42885;DHT22;28534;48.100;11.584;2022-10-01T07:55:51;21.70;70.70
42885;DHT22;28534;48.100;11.584;2022-10-01T08:05:54;21.70;71.50
42885;DHT22;28534;48.100;11.584;2022-10-01T08:15:56;21.70;71.00
42885;DHT22;28534;48.100;11.584;2022-10-01T08:26:00;21.60;71.00
42885;DHT22;28534;48.100;11.584;2022-10-01T08:36:03;21.70;70.90
42885;DHT22;28534;48.100;11.584;2022-10-01T08:46:13;21.70;70.80
42885;DHT22;28534;48.100;11.584;2022-10-01T08:56:21;21.70;70.80
42885;DHT22;28534;48.100;11.584;2022-10-01T09:06:26;21.60;70.80
42885;DHT22;28534;48.100;11.584;2022-10-01T09:16:31;21.60;70.80
42885;DHT22;28534;48.100;11.584;2022-10-01T09:26:41;21.60;70.40
42885;DHT22;28534;48.100;11.584;2022-10-01T09:36:50;21.70;71.00
42885;DHT22;28534;48.100;11.584;2022-10-01T09:46:59;21.70;70.90
42885;DHT22;28534;48.100;11.584;2022-10-01T09:57:06;21.80;71.20
42885;DHT22;28534;48.100;11.584;2022-10-01T10:07:16;21.70;72.10
42885;DHT22;28534;48.100;11.584;2022-10-01T10:17:18;21.70;72.00
42885;DHT22;28534;48.100;11.584;2022-10-01T10:27:25;21.00;62.60
42885;DHT22;28534;48.100;11.584;2022-10-01T10:37:29;21.50;63.40
42885;DHT22;28534;48.100;11.584;2022-10-01T10:47:43;21.60;64.90
42885;DHT22;28534;48.100;11.584;2022-10-01T10:57:45;21.60;66.40
42885;DHT22;28534;48.100;11.584;2022-10-01T11:07:53;21.60;67.30
42885;DHT22;28534;48.100;11.584;2022-10-01T11:28:37;21.70;68.20
42885;DHT22;28534;48.100;11.584;2022-10-01T11:38:49;21.70;68.20
42885;DHT22;28534;48.100;11.584;2022-10-01T11:48:56;21.70;68.40
42885;DHT22;28534;48.100;11.584;2022-10-01T11:59:04;21.60;69.10
42885;DHT22;28534;48.100;11.584;2022-10-01T12:09:12;21.60;69.40
42885;DHT22;28534;48.100;11.584;2022-10-01T12:19:18;21.60;69.80
42885;DHT22;28534;48.100;11.584;2022-10-01T12:29:25;21.60;70.70
42885;DHT22;28534;48.100;11.584;2022-10-01T12:39:41;21.70;72.00
42885;DHT22;28534;48.100;11.584;2022-10-01T12:49:47;21.70;71.40
42885;DHT22;28534;48.100;11.584;2022-10-01T13:00:02;21.70;71.60
42885;DHT22;28534;48.100;11.584;2022-10-01T13:10:17;21.70;73.50
42885;DHT22;28534;48.100;11.584;2022-10-01T13:20:28;21.70;73.30
42885;DHT22;28534;48.100;11.584;2022-10-01T13:30:44;21.60;73.30
42885;DHT22;28534;48.100;11.584;2022-10-01T13:40:56;21.70;72.90
42885;DHT22;28534;48.100;11.584;2022-10-01T13:51:02;21.70;72.80
42885;DHT22;28534;48.100;11.584;2022-10-01T14:01:25;21.70;72.70
42885;DHT22;28534;48.100;11.584;2022-10-01T14:11:32;21.70;72.60
42885;DHT22;28534;48.100;11.584;2022-10-01T14:22:01;21.70;72.80
42885;DHT22;28534;48.100;11.584;2022-10-01T14:32:16;21.70;72.60
42885;DHT22;28534;48.100;11.584;2022-10-01T14:42:22;21.70;72.50
42885;DHT22;28534;48.100;11.584;2022-10-01T14:52:27;21.60;72.60
42885;DHT22;28534;48.100;11.584;2022-10-01T15:02:29;21.70;72.50
42885;DHT22;28534;48.100;11.584;2022-10-01T15:12:38;21.70;72.60
42885;DHT22;28534;48.100;11.584;2022-10-01T15:22:42;21.60;72.80
42885;DHT22;28534;48.100;11.584;2022-10-01T15:32:47;21.60;72.80
42885;DHT22;28534;48.100;11.584;2022-10-01T15:53:33;21.70;77.50
42885;DHT22;28534;48.100;11.584;2022-10-01T16:03:37;21.90;80.20
42885;DHT22;28534;48.100;11.584;2022-10-01T16:13:42;21.90;78.10
42885;DHT22;28534;48.100;11.584;2022-10-01T16:23:45;21.80;77.00
42885;DHT22;28534;48.100;11.584;2022-10-01T16:33:50;21.70;76.80
42885;DHT22;28534;48.100;11.584;2022-10-01T16:43:54;21.60;73.60
42885;DHT22;28534;48.100;11.584;2022-10-01T16:53:58;21.50;70.20
42885;DHT22;28534;48.100;11.584;2022-10-01T17:04:01;21.70;70.40
42885;DHT22;28534;48.100;11.584;2022-10-01T17:14:04;21.80;70.70
42885;DHT22;28534;48.100;11.584;2022-10-01T17:24:08;21.80;71.10
42885;DHT22;28534;48.100;11.584;2022-10-01T17:34:12;21.70;71.20
42885;DHT22;28534;48.100;11.584;2022-10-01T17:44:14;21.60;71.60
42885;DHT22;28534;48.100;11.584;2022-10-01T17:54:17;21.60;72.40
42885;DHT22;28534;48.100;11.584;2022-10-01T18:04:20;21.50;72.30
42885;DHT22;28534;48.100;11.584;2022-10-01T18:14:23;21.50;72.30
42885;DHT22;28534;48.100;11.584;2022-10-01T18:24:25;21.40;72.50
42885;DHT22;28534;48.100;11.584;2022-10-01T18:34:31;20.90;66.70
42885;DHT22;28534;48.100;11.584;2022-10-01T18:44:36;21.10;67.70
42885;DHT22;28534;48.100;11.584;2022-10-01T18:54:53;21.30;68.00
42885;DHT22;28534;48.100;11.584;2022-10-01T19:05:23;21.20;68.40
42885;DHT22;28534;48.100;11.584;2022-10-01T19:15:39;21.20;68.90
42885;DHT22;28534;48.100;11.584;2022-10-01T19:25:49;21.20;69.30
42885;DHT22;28534;48.100;11.584;2022-10-01T19:35:54;21.20;69.70
42885;DHT22;28534;48.100;11.584;2022-10-01T19:46:02;21.20;69.90
42885;DHT22;28534;48.100;11.584;2022-10-01T19:56:08;21.10;70.00
42885;DHT22;28534;48.100;11.584;2022-10-01T20:06:18;21.10;70.20
42885;DHT22;28534;48.100;11.584;2022-10-01T20:16:25;21.10;70.30
42885;DHT22;28534;48.100;11.584;2022-10-01T20:26:34;21.10;70.30
42885;DHT22;28534;48.100;11.584;2022-10-01T20:36:44;21.10;70.50
42885;DHT22;28534;48.100;11.584;2022-10-01T20:46:49;21.10;70.50
42885;DHT22;28534;48.100;11.584;2022-10-01T20:57:01;21.10;70.60
42885;DHT22;28534;48.100;11.584;2022-10-01T21:07:13;21.10;70.60
42885;DHT22;28534;48.100;11.584;2022-10-01T21:17:32;21.00;70.60
42885;DHT22;28534;48.100;11.584;2022-10-01T21:27:53;21.00;70.70
42885;DHT22;28534;48.100;11.584;2022-10-01T21:38:07;21.00;70.70
42885;DHT22;28534;48.100;11.584;2022-10-01T21:48:22;21.10;70.70
42885;DHT22;28534;48.100;11.584;2022-10-01T21:58:37;21.00;70.70
